sensor_id;sensor_type;location;lat;lon;timestamp;pressure;altitude;pressure_sealevel;temperature;humidity
46614;BME280;32338;50.430;6.806;2023-07-30T00:00:29;67076.72;;;15.17;100.00
46614;BME280;32338;50.430;6.806;2023-07-30T00:02:56;67064.66;;;15.11;100.00
46614;BME280;32338;50.430;6.806;2023-07-30T00:05:23;67068.97;;;15.13;100.00
46614;BME280;32338;50.430;6.806;2023-07-30T00:07:50;67070.13;;;15.14;100.00
46614;BME280;32338;50.430;6.806;2023-07-30T00:10:17;67067.09;;;15.08;100.00
46614;BME280;32338;50.430;6.806;2023-07-30T00:12:44;67066.53;;;15.08;100.00
46614;BME280;32338;50.430;6.806;2023-07-30T00:15:10;67061.63;;;15.06;100.00
46614;BME280;32338;50.430;6.806;2023-07-30T00:17:38;67051.81;;;15.02;100.00
46614;BME280;32338;50.430;6.806;2023-07-30T00:20:06;67051.63;;;14.99;100.00
46614;BME280;32338;50.430;6.806;2023-07-30T00:22:34;67052.59;;;14.98;100.00
46614;BME280;32338;50.430;6.806;2023-07-30T00:25:01;67045.97;;;14.94;100.00
46614;BME280;32338;50.430;6.806;2023-07-30T00:27:28;67048.63;;;14.94;100.00
46614;BME280;32338;50.430;6.806;2023-07-30T00:29:55;67041.66;;;14.85;100.00
46614;BME280;32338;50.430;6.806;2023-07-30T00:32:21;67033.34;;;14.80;100.00
46614;BME280;32338;50.430;6.806;2023-07-30T00:34:48;67033.72;;;14.78;100.00
46614;BME280;32338;50.430;6.806;2023-07-30T00:37:15;67033.16;;;14.78;100.00
46614;BME280;32338;50.430;6.806;2023-07-30T00:39:42;67031.84;;;14.74;100.00
46614;BME280;32338;50.430;6.806;2023-07-30T00:42:09;67030.72;;;14.73;100.00
46614;BME280;32338;50.430;6.806;2023-07-30T00:44:35;67020.91;;;14.69;100.00
46614;BME280;32338;50.430;6.806;2023-07-30T00:47:02;67022.06;;;14.70;100.00
46614;BME280;32338;50.430;6.806;2023-07-30T00:49:29;67019.22;;;14.67;100.00
46614;BME280;32338;50.430;6.806;2023-07-30T00:51:56;67014.13;;;14.63;100.00
46614;BME280;32338;50.430;6.806;2023-07-30T00:54:23;67016.75;;;14.63;100.00
46614;BME280;32338;50.430;6.806;2023-07-30T00:56:52;67013.53;;;14.62;100.00
46614;BME280;32338;50.430;6.806;2023-07-30T00:59:20;67012.78;;;14.59;100.00
46614;BME280;32338;50.430;6.806;2023-07-30T01:01:47;67005.81;;;14.57;100.00
46614;BME280;32338;50.430;6.806;2023-07-30T01:04:14;67014.13;;;14.63;100.00
46614;BME280;32338;50.430;6.806;2023-07-30T01:06:40;67007.88;;;14.57;100.00
46614;BME280;32338;50.430;6.806;2023-07-30T01:09:07;67008.06;;;14.59;100.00
46614;BME280;32338;50.430;6.806;2023-07-30T01:11:34;67019.59;;;14.65;100.00
46614;BME280;32338;50.430;6.806;2023-07-30T01:14:03;67010.53;;;14.57;100.00
46614;BME280;32338;50.430;6.806;2023-07-30T01:16:31;67000.91;;;14.48;100.00
46614;BME280;32338;50.430;6.806;2023-07-30T01:18:58;66999.59;;;14.44;100.00
46614;BME280;32338;50.430;6.806;2023-07-30T01:21:31;66992.06;;;14.42;100.00
46614;BME280;32338;50.430;6.806;2023-07-30T01:23:57;66988.84;;;14.42;100.00
46614;BME280;32338;50.430;6.806;2023-07-30T01:26:27;66989.25;;;14.40;100.00
46614;BME280;32338;50.430;6.806;2023-07-30T01:28:58;66992.63;;;14.43;100.00
46614;BME280;32338;50.430;6.806;2023-07-30T01:31:27;66991.69;;;14.37;100.00
46614;BME280;32338;50.430;6.806;2023-07-30T01:33:56;66985.09;;;14.34;100.00
46614;BME280;32338;50.430;6.806;2023-07-30T01:36:24;66986.22;;;14.35;100.00
46614;BME280;32338;50.430;6.806;2023-07-30T01:38:53;66986.41;;;14.37;100.00
46614;BME280;32338;50.430;6.806;2023-07-30T01:41:20;66987.16;;;14.40;100.00
46614;BME280;32338;50.430;6.806;2023-07-30T01:43:46;66990.38;;;14.41;100.00
46614;BME280;32338;50.430;6.806;2023-07-30T01:46:13;66993.56;;;14.41;100.00
46614;BME280;32338;50.430;6.806;2023-07-30T01:48:39;66993.75;;;14.44;100.00
46614;BME280;32338;50.430;6.806;2023-07-30T01:51:06;66992.63;;;14.43;100.00
46614;BME280;32338;50.430;6.806;2023-07-30T01:53:32;66987.72;;;14.41;100.00
46614;BME280;32338;50.430;6.806;2023-07-30T01:56:00;66988.84;;;14.42;100.00
46614;BME280;32338;50.430;6.806;2023-07-30T01:58:27;66988.66;;;14.39;100.00
46614;BME280;32338;50.430;6.806;2023-07-30T02:00:53;66988.28;;;14.41;100.00
46614;BME280;32338;50.430;6.806;2023-07-30T02:03:20;66989.97;;;14.36;100.00
46614;BME280;32338;50.430;6.806;2023-07-30T02:05:46;66984.16;;;14.35;100.00
46614;BME280;32338;50.430;6.806;2023-07-30T02:08:13;66980.94;;;14.35;100.00
46614;BME280;32338;50.430;6.806;2023-07-30T02:10:41;66982.84;;;14.39;100.00
46614;BME280;32338;50.430;6.806;2023-07-30T02:13:09;66988.66;;;14.39;100.00
46614;BME280;32338;50.430;6.806;2023-07-30T02:15:40;66983.78;;;14.37;100.00
46614;BME280;32338;50.430;6.806;2023-07-30T02:18:06;66981.31;;;14.33;100.00
46614;BME280;32338;50.430;6.806;2023-07-30T02:20:35;66975.28;;;14.30;100.00
46614;BME280;32338;50.430;6.806;2023-07-30T02:23:01;66976.81;;;14.29;100.00
46614;BME280;32338;50.430;6.806;2023-07-30T02:25:28;66978.31;;;14.27;100.00
46614;BME280;32338;50.430;6.806;2023-07-30T02:27:55;66979.44;;;14.29;100.00
46614;BME280;32338;50.430;6.806;2023-07-30T02:30:22;66983.19;;;14.30;100.00
46614;BME280;32338;50.430;6.806;2023-07-30T02:32:49;66981.31;;;14.33;100.00
46614;BME280;32338;50.430;6.806;2023-07-30T02:35:16;66985.66;;;14.34;100.00
46614;BME280;32338;50.430;6.806;2023-07-30T02:37:42;66986.22;;;14.35;100.00
46614;BME280;32338;50.430;6.806;2023-07-30T02:40:10;66989.97;;;14.36;100.00
46614;BME280;32338;50.430;6.806;2023-07-30T02:42:37;66986.97;;;14.38;100.00
46614;BME280;32338;50.430;6.806;2023-07-30T02:45:04;66986.78;;;14.35;100.00
46614;BME280;32338;50.430;6.806;2023-07-30T02:47:32;66986.97;;;14.38;100.00
46614;BME280;32338;50.430;6.806;2023-07-30T02:49:58;66989.25;;;14.40;100.00
46614;BME280;32338;50.430;6.806;2023-07-30T02:52:25;66983.19;;;14.37;100.00
46614;BME280;32338;50.430;6.806;2023-07-30T02:54:51;66982.06;;;14.36;100.00
46614;BME280;32338;50.430;6.806;2023-07-30T02:57:18;66986.41;;;14.37;100.00
46614;BME280;32338;50.430;6.806;2023-07-30T02:59:45;66995.25;;;14.43;100.00
46614;BME280;32338;50.430;6.806;2023-07-30T03:02:11;66997.53;;;14.45;100.00
46614;BME280;32338;50.430;6.806;2023-07-30T03:04:39;66990.75;;;14.39;100.00
46614;BME280;32338;50.430;6.806;2023-07-30T03:07:06;66988.66;;;14.39;100.00
46614;BME280;32338;50.430;6.806;2023-07-30T03:09:32;66990.75;;;14.39;100.00
46614;BME280;32338;50.430;6.806;2023-07-30T03:11:59;66990.75;;;14.39;100.00
46614;BME280;32338;50.430;6.806;2023-07-30T03:14:25;66993.56;;;14.41;100.00
46614;BME280;32338;50.430;6.806;2023-07-30T03:16:52;66986.59;;;14.40;100.00
46614;BME280;32338;50.430;6.806;2023-07-30T03:19:19;66991.50;;;14.42;100.00
46614;BME280;32338;50.430;6.806;2023-07-30T03:21:46;66984.69;;;14.36;100.00
46614;BME280;32338;50.430;6.806;2023-07-30T03:24:13;66984.50;;;14.33;100.00
46614;BME280;32338;50.430;6.806;2023-07-30T03:26:40;66979.06;;;14.31;100.00
46614;BME280;32338;50.430;6.806;2023-07-30T03:29:06;66984.50;;;14.33;100.00
46614;BME280;32338;50.430;6.806;2023-07-30T03:31:33;66986.22;;;14.35;100.00
46614;BME280;32338;50.430;6.806;2023-07-30T03:34:00;66981.69;;;14.31;100.00
46614;BME280;32338;50.430;6.806;2023-07-30T03:36:26;66976.63;;;14.26;100.00
46614;BME280;32338;50.430;6.806;2023-07-30T03:38:54;66971.34;;;14.26;100.00
46614;BME280;32338;50.430;6.806;2023-07-30T03:41:21;66974.16;;;14.29;100.00
46614;BME280;32338;50.430;6.806;2023-07-30T03:43:48;66978.88;;;14.28;100.00
46614;BME280;32338;50.430;6.806;2023-07-30T03:46:14;66980.19;;;14.32;100.00
46614;BME280;32338;50.430;6.806;2023-07-30T03:48:41;66975.28;;;14.30;100.00
46614;BME280;32338;50.430;6.806;2023-07-30T03:51:07;66975.09;;;14.27;100.00
46614;BME280;32338;50.430;6.806;2023-07-30T03:53:34;66978.31;;;14.27;100.00
46614;BME280;32338;50.430;6.806;2023-07-30T03:56:02;66973.03;;;14.27;100.00
46614;BME280;32338;50.430;6.806;2023-07-30T03:58:29;66979.44;;;14.29;100.00
46614;BME280;32338;50.430;6.806;2023-07-30T04:00:56;66982.81;;;14.32;100.00
46614;BME280;32338;50.430;6.806;2023-07-30T04:03:23;66978.88;;;14.28;100.00
46614;BME280;32338;50.430;6.806;2023-07-30T04:05:49;66979.44;;;14.29;100.00
46614;BME280;32338;50.430;6.806;2023-07-30T04:08:16;66987.91;;;14.36;100.00
46614;BME280;32338;50.430;6.806;2023-07-30T04:10:42;66988.47;;;14.37;100.00
46614;BME280;32338;50.430;6.806;2023-07-30T04:13:10;66984.16;;;14.35;100.00
46614;BME280;32338;50.430;6.806;2023-07-30T04:15:37;66968.50;;;14.16;100.00
46614;BME280;32338;50.430;6.806;2023-07-30T04:18:03;66967.56;;;14.18;100.00
46614;BME280;32338;50.430;6.806;2023-07-30T04:20:30;66947.59;;;14.04;100.00
46614;BME280;32338;50.430;6.806;2023-07-30T04:22:57;66948.53;;;14.03;100.00
46614;BME280;32338;50.430;6.806;2023-07-30T04:25:23;66955.88;;;14.09;100.00
46614;BME280;32338;50.430;6.806;2023-07-30T04:27:50;66973.78;;;14.23;100.00
46614;BME280;32338;50.430;6.806;2023-07-30T04:30:18;66975.84;;;14.30;100.00
46614;BME280;32338;50.430;6.806;2023-07-30T04:32:44;66969.84;;;14.20;100.00
46614;BME280;32338;50.430;6.806;2023-07-30T04:35:11;66950.22;;;14.11;100.00
46614;BME280;32338;50.430;6.806;2023-07-30T04:37:37;66951.72;;;14.03;100.00
46614;BME280;32338;50.430;6.806;2023-07-30T04:40:05;66947.03;;;13.97;100.00
46614;BME280;32338;50.430;6.806;2023-07-30T04:42:32;66943.25;;;13.95;100.00
46614;BME280;32338;50.430;6.806;2023-07-30T04:44:58;66953.63;;;14.07;100.00
46614;BME280;32338;50.430;6.806;2023-07-30T04:47:26;66975.47;;;14.25;100.00
46614;BME280;32338;50.430;6.806;2023-07-30T04:49:53;66987.16;;;14.33;100.00
46614;BME280;32338;50.430;6.806;2023-07-30T04:52:19;66974.16;;;14.29;100.00
46614;BME280;32338;50.430;6.806;2023-07-30T04:54:46;66983.00;;;14.34;100.00
46614;BME280;32338;50.430;6.806;2023-07-30T04:57:12;66990.94;;;14.41;100.00
46614;BME280;32338;50.430;6.806;2023-07-30T04:59:39;67000.72;;;14.46;100.00
46614;BME280;32338;50.430;6.806;2023-07-30T05:02:05;66994.88;;;14.45;100.00
46614;BME280;32338;50.430;6.806;2023-07-30T05:04:34;66974.16;;;14.29;100.00
46614;BME280;32338;50.430;6.806;2023-07-30T05:07:00;66990.75;;;14.39;100.00
46614;BME280;32338;50.430;6.806;2023-07-30T05:09:27;66989.97;;;14.43;100.00
46614;BME280;32338;50.430;6.806;2023-07-30T05:11:53;67009.38;;;14.56;100.00
46614;BME280;32338;50.430;6.806;2023-07-30T05:14:20;66997.13;;;14.47;100.00
46614;BME280;32338;50.430;6.806;2023-07-30T05:16:47;66978.69;;;14.33;100.00
46614;BME280;32338;50.430;6.806;2023-07-30T05:19:13;66978.31;;;14.27;100.00
46614;BME280;32338;50.430;6.806;2023-07-30T05:21:41;66990.16;;;14.38;100.00
46614;BME280;32338;50.430;6.806;2023-07-30T05:24:08;66971.53;;;14.29;100.00
46614;BME280;32338;50.430;6.806;2023-07-30T05:26:34;66970.94;;;14.21;100.00
46614;BME280;32338;50.430;6.806;2023-07-30T05:29:01;66962.66;;;14.16;100.00
46614;BME280;32338;50.430;6.806;2023-07-30T05:31:28;66968.13;;;14.18;100.00
46614;BME280;32338;50.430;6.806;2023-07-30T05:33:55;66976.81;;;14.29;100.00
46614;BME280;32338;50.430;6.806;2023-07-30T05:36:21;67002.03;;;14.49;100.00
46614;BME280;32338;50.430;6.806;2023-07-30T05:38:49;67006.19;;;14.55;100.00
46614;BME280;32338;50.430;6.806;2023-07-30T05:41:16;66993.75;;;14.44;100.00
46614;BME280;32338;50.430;6.806;2023-07-30T05:43:42;66996.22;;;14.41;100.00
46614;BME280;32338;50.430;6.806;2023-07-30T05:46:09;66991.13;;;14.44;100.00
46614;BME280;32338;50.430;6.806;2023-07-30T05:48:35;66994.31;;;14.44;100.00
46614;BME280;32338;50.430;6.806;2023-07-30T05:51:02;66991.69;;;14.44;100.00
46614;BME280;32338;50.430;6.806;2023-07-30T05:53:29;66992.06;;;14.42;100.00
46614;BME280;32338;50.430;6.806;2023-07-30T05:55:57;67003.19;;;14.50;100.00
46614;BME280;32338;50.430;6.806;2023-07-30T05:58:23;67011.09;;;14.57;100.00
46614;BME280;32338;50.430;6.806;2023-07-30T06:00:50;67003.91;;;14.53;100.00
46614;BME280;32338;50.430;6.806;2023-07-30T06:03:16;67012.03;;;14.56;100.00
46614;BME280;32338;50.430;6.806;2023-07-30T06:05:43;66998.28;;;14.48;100.00
46614;BME280;32338;50.430;6.806;2023-07-30T06:08:09;66995.84;;;14.43;100.00
46614;BME280;32338;50.430;6.806;2023-07-30T06:10:36;67011.84;;;14.60;100.00
46614;BME280;32338;50.430;6.806;2023-07-30T06:13:04;67012.41;;;14.61;100.00
46614;BME280;32338;50.430;6.806;2023-07-30T06:15:31;67014.47;;;14.60;100.00
46614;BME280;32338;50.430;6.806;2023-07-30T06:18:00;67019.59;;;14.65;100.00
46614;BME280;32338;50.430;6.806;2023-07-30T06:20:26;67012.59;;;14.56;100.00
46614;BME280;32338;50.430;6.806;2023-07-30T06:22:53;67003.19;;;14.50;100.00
46614;BME280;32338;50.430;6.806;2023-07-30T06:25:19;66999.41;;;14.49;100.00
46614;BME280;32338;50.430;6.806;2023-07-30T06:27:46;66999.03;;;14.51;100.00
46614;BME280;32338;50.430;6.806;2023-07-30T06:30:14;66995.44;;;14.46;100.00
46614;BME280;32338;50.430;6.806;2023-07-30T06:32:41;66992.25;;;14.45;100.00
46614;BME280;32338;50.430;6.806;2023-07-30T06:35:08;66986.97;;;14.38;100.00
46614;BME280;32338;50.430;6.806;2023-07-30T06:37:34;66978.69;;;14.25;100.00
46614;BME280;32338;50.430;6.806;2023-07-30T06:40:01;66974.91;;;14.24;100.00
46614;BME280;32338;50.430;6.806;2023-07-30T06:42:31;66969.44;;;14.22;100.00
46614;BME280;32338;50.430;6.806;2023-07-30T06:44:58;66969.84;;;14.20;100.00
46614;BME280;32338;50.430;6.806;2023-07-30T06:47:25;66957.59;;;14.11;100.00
46614;BME280;32338;50.430;6.806;2023-07-30T06:49:52;66960.97;;;14.14;100.00
46614;BME280;32338;50.430;6.806;2023-07-30T06:52:19;66962.47;;;14.13;100.00
46614;BME280;32338;50.430;6.806;2023-07-30T06:54:45;66970.03;;;14.22;100.00
46614;BME280;32338;50.430;6.806;2023-07-30T06:57:12;66977.91;;;14.30;100.00
46614;BME280;32338;50.430;6.806;2023-07-30T06:59:38;66981.88;;;14.33;100.00
46614;BME280;32338;50.430;6.806;2023-07-30T07:02:05;66985.47;;;14.32;100.00
46614;BME280;32338;50.430;6.806;2023-07-30T07:04:34;66978.31;;;14.27;100.00
46614;BME280;32338;50.430;6.806;2023-07-30T07:07:03;66950.22;;;14.04;100.00
46614;BME280;32338;50.430;6.806;2023-07-30T07:09:30;66934.78;;;13.95;100.00
46614;BME280;32338;50.430;6.806;2023-07-30T07:11:57;66948.91;;;14.01;100.00
46614;BME280;32338;50.430;6.806;2023-07-30T07:14:24;66960.22;;;14.11;100.00
46614;BME280;32338;50.430;6.806;2023-07-30T07:16:52;66966.25;;;14.21;100.00
46614;BME280;32338;50.430;6.806;2023-07-30T07:19:18;66966.06;;;14.19;100.00
46614;BME280;32338;50.430;6.806;2023-07-30T07:21:46;66961.56;;;14.15;100.00
46614;BME280;32338;50.430;6.806;2023-07-30T07:24:13;66957.59;;;14.11;100.00
46614;BME280;32338;50.430;6.806;2023-07-30T07:26:40;66953.81;;;14.10;100.00
46614;BME280;32338;50.430;6.806;2023-07-30T07:29:07;66955.31;;;14.09;100.00
46614;BME280;32338;50.430;6.806;2023-07-30T07:31:33;66965.28;;;14.16;100.00
46614;BME280;32338;50.430;6.806;2023-07-30T07:34:00;66951.56;;;14.08;100.00
46614;BME280;32338;50.430;6.806;2023-07-30T07:36:26;66953.63;;;14.07;100.00
46614;BME280;32338;50.430;6.806;2023-07-30T07:38:54;66957.00;;;14.10;100.00
46614;BME280;32338;50.430;6.806;2023-07-30T07:41:21;66966.63;;;14.19;100.00
46614;BME280;32338;50.430;6.806;2023-07-30T07:43:47;66976.03;;;14.25;100.00
46614;BME280;32338;50.430;6.806;2023-07-30T07:46:14;66975.09;;;14.27;100.00
46614;BME280;32338;50.430;6.806;2023-07-30T07:48:41;66986.22;;;14.35;100.00
46614;BME280;32338;50.430;6.806;2023-07-30T07:51:09;66990.56;;;14.43;100.00
46614;BME280;32338;50.430;6.806;2023-07-30T07:53:37;66991.50;;;14.42;100.00
46614;BME280;32338;50.430;6.806;2023-07-30T07:56:05;66980.19;;;14.32;100.00
46614;BME280;32338;50.430;6.806;2023-07-30T07:58:32;66992.44;;;14.40;100.00
46614;BME280;32338;50.430;6.806;2023-07-30T08:00:59;67000.16;;;14.52;100.00
46614;BME280;32338;50.430;6.806;2023-07-30T08:03:26;66988.66;;;14.39;100.00
46614;BME280;32338;50.430;6.806;2023-07-30T08:05:53;66991.31;;;14.39;100.00
46614;BME280;32338;50.430;6.806;2023-07-30T08:08:19;66989.06;;;14.37;100.00
46614;BME280;32338;50.430;6.806;2023-07-30T08:10:46;67001.69;;;14.51;100.00
46614;BME280;32338;50.430;6.806;2023-07-30T08:13:14;67002.63;;;14.50;100.00
46614;BME280;32338;50.430;6.806;2023-07-30T08:15:40;67022.06;;;14.70;100.00
46614;BME280;32338;50.430;6.806;2023-07-30T08:18:07;67025.63;;;14.68;100.00
46614;BME280;32338;50.430;6.806;2023-07-30T08:20:34;67021.09;;;14.71;100.00
46614;BME280;32338;50.430;6.806;2023-07-30T08:23:00;67022.06;;;14.70;100.00
46614;BME280;32338;50.430;6.806;2023-07-30T08:25:27;67026.38;;;14.71;100.00
46614;BME280;32338;50.430;6.806;2023-07-30T08:27:54;67006.75;;;14.56;100.00
46614;BME280;32338;50.430;6.806;2023-07-30T08:30:21;66998.09;;;14.46;100.00
46614;BME280;32338;50.430;6.806;2023-07-30T08:32:48;66989.06;;;14.37;100.00
46614;BME280;32338;50.430;6.806;2023-07-30T08:35:15;66984.69;;;14.36;100.00
46614;BME280;32338;50.430;6.806;2023-07-30T08:37:41;66973.41;;;14.25;100.00
46614;BME280;32338;50.430;6.806;2023-07-30T08:40:09;66966.25;;;14.21;100.00
46614;BME280;32338;50.430;6.806;2023-07-30T08:42:36;66956.06;;;14.12;100.00
46614;BME280;32338;50.430;6.806;2023-07-30T08:45:06;66959.09;;;14.10;100.00
46614;BME280;32338;50.430;6.806;2023-07-30T08:47:34;66976.63;;;14.26;100.00
46614;BME280;32338;50.430;6.806;2023-07-30T08:50:01;67003.91;;;14.53;100.00
46614;BME280;32338;50.430;6.806;2023-07-30T08:52:28;67036.56;;;14.81;100.00
46614;BME280;32338;50.430;6.806;2023-07-30T08:54:56;67062.75;;;15.07;100.00
46614;BME280;32338;50.430;6.806;2023-07-30T08:57:26;67082.38;;;15.22;100.00
46614;BME280;32338;50.430;6.806;2023-07-30T08:59:58;67093.69;;;15.33;100.00
46614;BME280;32338;50.430;6.806;2023-07-30T09:02:31;67111.97;;;15.52;100.00
46614;BME280;32338;50.430;6.806;2023-07-30T09:05:01;67125.56;;;15.64;100.00
46614;BME280;32338;50.430;6.806;2023-07-30T09:07:28;67131.59;;;15.67;100.00
46614;BME280;32338;50.430;6.806;2023-07-30T09:09:55;67125.38;;;15.62;100.00
46614;BME280;32338;50.430;6.806;2023-07-30T09:12:26;67095.19;;;15.39;100.00
46614;BME280;32338;50.430;6.806;2023-07-30T09:14:52;67066.91;;;15.13;100.00
46614;BME280;32338;50.430;6.806;2023-07-30T09:17:19;67075.22;;;15.11;100.00
46614;BME280;32338;50.430;6.806;2023-07-30T09:19:46;67053.91;;;14.94;100.00
46614;BME280;32338;50.430;6.806;2023-07-30T09:22:19;67040.69;;;14.87;100.00
46614;BME280;32338;50.430;6.806;2023-07-30T09:24:46;67027.31;;;14.77;100.00
46614;BME280;32338;50.430;6.806;2023-07-30T09:27:13;67020.16;;;14.66;100.00
46614;BME280;32338;50.430;6.806;2023-07-30T09:29:50;67012.78;;;14.59;100.00
46614;BME280;32338;50.430;6.806;2023-07-30T09:32:17;67016.16;;;14.62;100.00
46614;BME280;32338;50.430;6.806;2023-07-30T09:34:44;67020.72;;;14.73;100.00
46614;BME280;32338;50.430;6.806;2023-07-30T09:37:12;67054.84;;;15.00;100.00
46614;BME280;32338;50.430;6.806;2023-07-30T09:39:40;67059.38;;;15.04;100.00
46614;BME280;32338;50.430;6.806;2023-07-30T09:42:07;67062.75;;;15.07;100.00
46614;BME280;32338;50.430;6.806;2023-07-30T09:44:37;67055.59;;;15.03;100.00
46614;BME280;32338;50.430;6.806;2023-07-30T09:47:05;67040.69;;;14.87;100.00
46614;BME280;32338;50.430;6.806;2023-07-30T09:49:31;67029.41;;;14.77;100.00
46614;BME280;32338;50.430;6.806;2023-07-30T09:51:58;67030.91;;;14.75;100.00
46614;BME280;32338;50.430;6.806;2023-07-30T09:54:26;67040.88;;;14.82;100.00
46614;BME280;32338;50.430;6.806;2023-07-30T09:56:54;67050.31;;;14.96;100.00
46614;BME280;32338;50.430;6.806;2023-07-30T09:59:21;67073.31;;;15.14;100.00
46614;BME280;32338;50.430;6.806;2023-07-30T10:01:48;67103.88;;;15.42;100.00
46614;BME280;32338;50.430;6.806;2023-07-30T10:04:18;67122.72;;;15.62;100.00
46614;BME280;32338;50.430;6.806;2023-07-30T10:06:51;67149.16;;;15.83;100.00
46614;BME280;32338;50.430;6.806;2023-07-30T10:09:20;67168.41;;;16.01;100.00
46614;BME280;32338;50.430;6.806;2023-07-30T10:11:49;67169.72;;;15.97;100.00
46614;BME280;32338;50.430;6.806;2023-07-30T10:14:20;67153.13;;;15.87;100.00
46614;BME280;32338;50.430;6.806;2023-07-30T10:16:52;67152.34;;;15.91;100.00
46614;BME280;32338;50.430;6.806;2023-07-30T10:19:22;67155.38;;;15.89;100.00
46614;BME280;32338;50.430;6.806;2023-07-30T10:21:49;67160.28;;;15.91;100.00
46614;BME280;32338;50.430;6.806;2023-07-30T10:24:16;67174.44;;;16.04;100.00
46614;BME280;32338;50.430;6.806;2023-07-30T10:26:42;67186.50;;;16.17;100.00
46614;BME280;32338;50.430;6.806;2023-07-30T10:29:16;67187.63;;;16.18;100.00
46614;BME280;32338;50.430;6.806;2023-07-30T10:31:51;67186.72;;;16.20;100.00
46614;BME280;32338;50.430;6.806;2023-07-30T10:34:18;67207.25;;;16.41;100.00
46614;BME280;32338;50.430;6.806;2023-07-30T10:36:47;67215.97;;;16.44;100.00
46614;BME280;32338;50.430;6.806;2023-07-30T10:39:15;67196.72;;;16.27;100.00
46614;BME280;32338;50.430;6.806;2023-07-30T10:41:43;67173.69;;;16.08;100.00
46614;BME280;32338;50.430;6.806;2023-07-30T10:44:24;67165.75;;;16.01;100.00
46614;BME280;32338;50.430;6.806;2023-07-30T10:46:52;67155.56;;;15.92;100.00
46614;BME280;32338;50.430;6.806;2023-07-30T10:49:19;67147.09;;;15.84;100.00
46614;BME280;32338;50.430;6.806;2023-07-30T10:51:46;67144.06;;;15.79;100.00
46614;BME280;32338;50.430;6.806;2023-07-30T10:54:12;67136.50;;;15.77;100.00
46614;BME280;32338;50.430;6.806;2023-07-30T10:56:41;67147.81;;;15.87;100.00
46614;BME280;32338;50.430;6.806;2023-07-30T10:59:08;67160.66;;;15.96;100.00
46614;BME280;32338;50.430;6.806;2023-07-30T11:01:39;67167.66;;;16.05;100.00
46614;BME280;32338;50.430;6.806;2023-07-30T11:04:09;67175.38;;;16.10;100.00
46614;BME280;32338;50.430;6.806;2023-07-30T11:06:36;67208.59;;;16.37;100.00
46614;BME280;32338;50.430;6.806;2023-07-30T11:09:03;67235.41;;;16.64;100.00
46614;BME280;32338;50.430;6.806;2023-07-30T11:11:30;67245.38;;;16.78;100.00
46614;BME280;32338;50.430;6.806;2023-07-30T11:13:57;67239.38;;;16.68;100.00
46614;BME280;32338;50.430;6.806;2023-07-30T11:16:24;67244.84;;;16.70;100.00
46614;BME280;32338;50.430;6.806;2023-07-30T11:18:52;67248.22;;;16.74;100.00
46614;BME280;32338;50.430;6.806;2023-07-30T11:21:20;67253.69;;;16.83;100.00
46614;BME280;32338;50.430;6.806;2023-07-30T11:23:46;67248.03;;;16.71;100.00
46614;BME280;32338;50.430;6.806;2023-07-30T11:26:15;67227.66;;;16.60;100.00
46614;BME280;32338;50.430;6.806;2023-07-30T11:28:42;67226.31;;;16.56;100.00
46614;BME280;32338;50.430;6.806;2023-07-30T11:31:12;67215.59;;;16.46;100.00
46614;BME280;32338;50.430;6.806;2023-07-30T11:33:40;67210.84;;;16.40;100.00
46614;BME280;32338;50.430;6.806;2023-07-30T11:36:11;67220.47;;;16.48;100.00
46614;BME280;32338;50.430;6.806;2023-07-30T11:38:40;67217.84;;;16.48;100.00
46614;BME280;32338;50.430;6.806;2023-07-30T11:41:07;67231.81;;;16.59;100.00
46614;BME280;32338;50.430;6.806;2023-07-30T11:43:37;67244.06;;;16.75;100.00
46614;BME280;32338;50.430;6.806;2023-07-30T11:46:07;67272.22;;;16.98;100.00
46614;BME280;32338;50.430;6.806;2023-07-30T11:48:34;67272.41;;;17.00;100.00
46614;BME280;32338;50.430;6.806;2023-07-30T11:51:00;67278.84;;;17.01;100.00
46614;BME280;32338;50.430;6.806;2023-07-30T11:53:47;67299.63;;;17.25;100.00
46614;BME280;32338;50.430;6.806;2023-07-30T11:56:16;67307.94;;;17.30;100.00
46614;BME280;32338;50.430;6.806;2023-07-30T11:58:43;67337.19;;;17.62;100.00
46614;BME280;32338;50.430;6.806;2023-07-30T12:01:10;67332.69;;;17.50;100.00
46614;BME280;32338;50.430;6.806;2023-07-30T12:03:37;67320.38;;;17.42;100.00
46614;BME280;32338;50.430;6.806;2023-07-30T12:06:04;67332.09;;;17.50;100.00
46614;BME280;32338;50.430;6.806;2023-07-30T12:08:34;67328.31;;;17.49;100.00
46614;BME280;32338;50.430;6.806;2023-07-30T12:11:04;67320.56;;;17.44;100.00
46614;BME280;32338;50.430;6.806;2023-07-30T12:13:31;67318.28;;;17.42;100.00
46614;BME280;32338;50.430;6.806;2023-07-30T12:15:58;67322.66;;;17.44;100.00
46614;BME280;32338;50.430;6.806;2023-07-30T12:18:25;67307.53;;;17.32;100.00
46614;BME280;32338;50.430;6.806;2023-07-30T12:20:54;67318.50;;;17.38;100.00
46614;BME280;32338;50.430;6.806;2023-07-30T12:23:21;67315.09;;;17.34;100.00
46614;BME280;32338;50.430;6.806;2023-07-30T12:25:48;67305.47;;;17.26;100.00
46614;BME280;32338;50.430;6.806;2023-07-30T12:28:15;67304.50;;;17.27;100.00
46614;BME280;32338;50.430;6.806;2023-07-30T12:30:42;67343.22;;;17.65;100.00
46614;BME280;32338;50.430;6.806;2023-07-30T12:33:08;67375.38;;;17.92;100.00
46614;BME280;32338;50.430;6.806;2023-07-30T12:35:35;67412.44;;;18.28;100.00
46614;BME280;32338;50.430;6.806;2023-07-30T12:38:02;67425.28;;;18.37;100.00
46614;BME280;32338;50.430;6.806;2023-07-30T12:40:28;67443.41;;;18.54;100.00
46614;BME280;32338;50.430;6.806;2023-07-30T12:43:00;67456.84;;;18.63;100.00
46614;BME280;32338;50.430;6.806;2023-07-30T12:45:28;67440.38;;;18.56;100.00
46614;BME280;32338;50.430;6.806;2023-07-30T12:47:54;67416.78;;;18.29;100.00
46614;BME280;32338;50.430;6.806;2023-07-30T12:50:21;67434.19;;;18.43;100.00